sensor_id;sensor_type;location;lat;lon;timestamp;P1;durP1;ratioP1;P2;durP2;ratioP2
9128;SDS011;4599;50.906;6.786;2022-08-21T00:02:29;13.87;;;6.67;;
9128;SDS011;4599;50.906;6.786;2022-08-21T00:06:31;10.13;;;5.93;;
9128;SDS011;4599;50.906;6.786;2022-08-21T00:10:33;11.80;;;6.27;;
9128;SDS011;4599;50.906;6.786;2022-08-21T00:14:35;11.30;;;6.13;;
9128;SDS011;4599;50.906;6.786;2022-08-21T00:18:38;11.10;;;5.90;;
9128;SDS011;4599;50.906;6.786;2022-08-21T00:22:40;13.63;;;5.77;;
9128;SDS011;4599;50.906;6.786;2022-08-21T00:26:42;12.63;;;5.90;;
9128;SDS011;4599;50.906;6.786;2022-08-21T00:30:45;11.73;;;4.73;;
9128;SDS011;4599;50.906;6.786;2022-08-21T00:34:48;10.80;;;4.97;;
9128;SDS011;4599;50.906;6.786;2022-08-21T00:38:51;14.00;;;5.40;;
9128;SDS011;4599;50.906;6.786;2022-08-21T00:42:52;12.33;;;5.10;;
9128;SDS011;4599;50.906;6.786;2022-08-21T00:46:54;9.63;;;5.13;;
9128;SDS011;4599;50.906;6.786;2022-08-21T00:50:58;15.27;;;5.00;;
9128;SDS011;4599;50.906;6.786;2022-08-21T00:55:04;9.93;;;4.93;;
9128;SDS011;4599;50.906;6.786;2022-08-21T00:59:10;8.17;;;5.10;;
9128;SDS011;4599;50.906;6.786;2022-08-21T01:03:13;10.93;;;5.47;;
9128;SDS011;4599;50.906;6.786;2022-08-21T01:07:19;12.43;;;5.60;;
9128;SDS011;4599;50.906;6.786;2022-08-21T01:11:22;14.50;;;5.57;;
9128;SDS011;4599;50.906;6.786;2022-08-21T01:15:26;13.57;;;5.53;;
9128;SDS011;4599;50.906;6.786;2022-08-21T01:19:31;10.37;;;5.43;;
9128;SDS011;4599;50.906;6.786;2022-08-21T01:23:34;11.97;;;5.83;;
9128;SDS011;4599;50.906;6.786;2022-08-21T01:27:37;12.27;;;5.83;;
9128;SDS011;4599;50.906;6.786;2022-08-21T01:31:39;10.83;;;5.73;;
9128;SDS011;4599;50.906;6.786;2022-08-21T01:35:40;12.57;;;5.57;;
9128;SDS011;4599;50.906;6.786;2022-08-21T01:39:43;10.40;;;5.30;;
9128;SDS011;4599;50.906;6.786;2022-08-21T01:43:45;10.13;;;4.50;;
9128;SDS011;4599;50.906;6.786;2022-08-21T01:47:47;9.63;;;4.60;;
9128;SDS011;4599;50.906;6.786;2022-08-21T01:51:48;12.83;;;4.80;;
9128;SDS011;4599;50.906;6.786;2022-08-21T01:55:51;9.37;;;4.57;;
9128;SDS011;4599;50.906;6.786;2022-08-21T01:59:53;10.00;;;4.50;;
9128;SDS011;4599;50.906;6.786;2022-08-21T02:03:55;6.97;;;4.27;;
9128;SDS011;4599;50.906;6.786;2022-08-21T02:07:56;8.40;;;4.00;;
9128;SDS011;4599;50.906;6.786;2022-08-21T02:12:01;7.40;;;3.97;;
9128;SDS011;4599;50.906;6.786;2022-08-21T02:16:04;6.50;;;4.50;;
9128;SDS011;4599;50.906;6.786;2022-08-21T02:20:06;10.17;;;4.33;;
9128;SDS011;4599;50.906;6.786;2022-08-21T02:24:09;10.60;;;4.30;;
9128;SDS011;4599;50.906;6.786;2022-08-21T02:28:13;7.97;;;4.13;;
9128;SDS011;4599;50.906;6.786;2022-08-21T02:32:15;8.33;;;3.87;;
9128;SDS011;4599;50.906;6.786;2022-08-21T02:36:17;8.93;;;3.83;;
9128;SDS011;4599;50.906;6.786;2022-08-21T02:40:20;7.63;;;3.63;;
9128;SDS011;4599;50.906;6.786;2022-08-21T02:44:25;8.50;;;3.87;;
9128;SDS011;4599;50.906;6.786;2022-08-21T02:48:35;13.00;;;3.77;;
9128;SDS011;4599;50.906;6.786;2022-08-21T02:52:37;10.53;;;3.93;;
9128;SDS011;4599;50.906;6.786;2022-08-21T02:56:39;5.57;;;3.87;;
9128;SDS011;4599;50.906;6.786;2022-08-21T03:00:42;9.33;;;4.10;;
9128;SDS011;4599;50.906;6.786;2022-08-21T03:04:43;7.10;;;3.73;;
9128;SDS011;4599;50.906;6.786;2022-08-21T03:08:47;9.37;;;4.20;;
9128;SDS011;4599;50.906;6.786;2022-08-21T03:12:49;12.00;;;4.90;;
9128;SDS011;4599;50.906;6.786;2022-08-21T03:16:52;9.77;;;4.37;;
9128;SDS011;4599;50.906;6.786;2022-08-21T03:20:53;10.70;;;4.17;;
9128;SDS011;4599;50.906;6.786;2022-08-21T03:24:55;10.97;;;4.80;;
9128;SDS011;4599;50.906;6.786;2022-08-21T03:28:57;14.17;;;4.80;;
9128;SDS011;4599;50.906;6.786;2022-08-21T03:33:00;8.03;;;4.53;;
9128;SDS011;4599;50.906;6.786;2022-08-21T03:37:02;6.50;;;4.13;;
9128;SDS011;4599;50.906;6.786;2022-08-21T03:41:05;8.93;;;4.47;;
9128;SDS011;4599;50.906;6.786;2022-08-21T03:45:08;11.57;;;4.43;;
9128;SDS011;4599;50.906;6.786;2022-08-21T03:49:12;7.43;;;4.47;;
9128;SDS011;4599;50.906;6.786;2022-08-21T03:53:14;13.07;;;4.43;;
9128;SDS011;4599;50.906;6.786;2022-08-21T03:57:18;9.00;;;4.53;;
9128;SDS011;4599;50.906;6.786;2022-08-21T04:01:19;9.27;;;4.00;;
9128;SDS011;4599;50.906;6.786;2022-08-21T04:05:22;9.90;;;4.33;;
9128;SDS011;4599;50.906;6.786;2022-08-21T04:09:25;8.23;;;4.37;;
9128;SDS011;4599;50.906;6.786;2022-08-21T04:13:27;8.23;;;3.67;;
9128;SDS011;4599;50.906;6.786;2022-08-21T04:17:29;9.73;;;4.63;;
9128;SDS011;4599;50.906;6.786;2022-08-21T04:21:32;9.00;;;4.23;;
9128;SDS011;4599;50.906;6.786;2022-08-21T04:25:34;9.73;;;3.83;;
9128;SDS011;4599;50.906;6.786;2022-08-21T04:29:35;9.70;;;4.30;;
9128;SDS011;4599;50.906;6.786;2022-08-21T04:33:40;7.97;;;3.90;;
9128;SDS011;4599;50.906;6.786;2022-08-21T04:37:43;6.10;;;3.63;;
9128;SDS011;4599;50.906;6.786;2022-08-21T04:41:45;10.47;;;4.10;;
9128;SDS011;4599;50.906;6.786;2022-08-21T04:45:47;6.93;;;4.20;;
9128;SDS011;4599;50.906;6.786;2022-08-21T04:49:50;10.13;;;4.40;;
9128;SDS011;4599;50.906;6.786;2022-08-21T04:53:53;10.80;;;4.00;;
9128;SDS011;4599;50.906;6.786;2022-08-21T04:57:58;7.23;;;3.43;;
9128;SDS011;4599;50.906;6.786;2022-08-21T05:02:00;9.37;;;3.87;;
9128;SDS011;4599;50.906;6.786;2022-08-21T05:06:03;7.17;;;3.70;;
9128;SDS011;4599;50.906;6.786;2022-08-21T05:10:09;7.30;;;3.80;;
9128;SDS011;4599;50.906;6.786;2022-08-21T05:14:14;5.93;;;3.73;;
9128;SDS011;4599;50.906;6.786;2022-08-21T05:18:15;6.70;;;3.90;;
9128;SDS011;4599;50.906;6.786;2022-08-21T05:22:21;8.03;;;3.83;;
9128;SDS011;4599;50.906;6.786;2022-08-21T05:26:24;10.00;;;3.90;;
9128;SDS011;4599;50.906;6.786;2022-08-21T05:30:26;7.40;;;3.90;;
9128;SDS011;4599;50.906;6.786;2022-08-21T05:34:28;8.47;;;4.10;;
9128;SDS011;4599;50.906;6.786;2022-08-21T05:38:30;12.20;;;4.20;;
9128;SDS011;4599;50.906;6.786;2022-08-21T05:42:33;5.70;;;3.70;;
9128;SDS011;4599;50.906;6.786;2022-08-21T05:46:35;6.00;;;3.43;;
9128;SDS011;4599;50.906;6.786;2022-08-21T05:50:37;8.47;;;3.60;;
9128;SDS011;4599;50.906;6.786;2022-08-21T05:54:40;7.00;;;3.23;;
9128;SDS011;4599;50.906;6.786;2022-08-21T05:58:43;8.10;;;3.03;;
9128;SDS011;4599;50.906;6.786;2022-08-21T06:02:45;8.90;;;3.23;;
9128;SDS011;4599;50.906;6.786;2022-08-21T06:06:46;8.20;;;3.10;;
9128;SDS011;4599;50.906;6.786;2022-08-21T06:10:49;6.50;;;2.97;;
9128;SDS011;4599;50.906;6.786;2022-08-21T06:14:53;5.80;;;2.80;;
9128;SDS011;4599;50.906;6.786;2022-08-21T06:18:54;7.47;;;2.90;;
9128;SDS011;4599;50.906;6.786;2022-08-21T06:23:02;6.50;;;2.97;;
9128;SDS011;4599;50.906;6.786;2022-08-21T06:27:05;8.00;;;3.10;;
9128;SDS011;4599;50.906;6.786;2022-08-21T06:31:11;6.60;;;2.73;;
9128;SDS011;4599;50.906;6.786;2022-08-21T06:35:15;6.70;;;2.80;;
9128;SDS011;4599;50.906;6.786;2022-08-21T06:39:16;5.07;;;2.50;;
9128;SDS011;4599;50.906;6.786;2022-08-21T06:43:30;6.43;;;2.50;;
9128;SDS011;4599;50.906;6.786;2022-08-21T06:47:41;4.37;;;2.57;;
9128;SDS011;4599;50.906;6.786;2022-08-21T06:51:43;11.30;;;2.87;;
9128;SDS011;4599;50.906;6.786;2022-08-21T06:55:44;6.90;;;2.73;;
9128;SDS011;4599;50.906;6.786;2022-08-21T06:59:46;6.47;;;2.47;;
9128;SDS011;4599;50.906;6.786;2022-08-21T07:03:49;9.63;;;2.60;;
9128;SDS011;4599;50.906;6.786;2022-08-21T07:07:52;8.03;;;2.50;;
9128;SDS011;4599;50.906;6.786;2022-08-21T07:11:54;7.23;;;2.33;;
9128;SDS011;4599;50.906;6.786;2022-08-21T07:15:56;6.87;;;2.57;;
9128;SDS011;4599;50.906;6.786;2022-08-21T07:20:06;3.67;;;1.83;;
9128;SDS011;4599;50.906;6.786;2022-08-21T07:24:08;5.50;;;2.23;;
9128;SDS011;4599;50.906;6.786;2022-08-21T07:28:10;6.60;;;2.20;;
9128;SDS011;4599;50.906;6.786;2022-08-21T07:32:12;6.00;;;2.10;;
9128;SDS011;4599;50.906;6.786;2022-08-21T07:36:17;7.40;;;2.10;;
9128;SDS011;4599;50.906;6.786;2022-08-21T07:40:18;6.30;;;2.40;;
9128;SDS011;4599;50.906;6.786;2022-08-21T07:44:20;5.70;;;2.00;;
9128;SDS011;4599;50.906;6.786;2022-08-21T07:48:22;9.00;;;2.50;;
9128;SDS011;4599;50.906;6.786;2022-08-21T07:52:25;6.00;;;2.50;;
9128;SDS011;4599;50.906;6.786;2022-08-21T07:56:32;8.70;;;2.70;;
9128;SDS011;4599;50.906;6.786;2022-08-21T08:00:34;7.40;;;2.43;;
9128;SDS011;4599;50.906;6.786;2022-08-21T08:04:36;7.63;;;2.10;;
9128;SDS011;4599;50.906;6.786;2022-08-21T08:08:52;7.13;;;2.20;;
9128;SDS011;4599;50.906;6.786;2022-08-21T08:12:53;4.67;;;2.00;;
9128;SDS011;4599;50.906;6.786;2022-08-21T08:16:55;6.60;;;2.07;;
9128;SDS011;4599;50.906;6.786;2022-08-21T08:20:57;4.63;;;1.90;;
9128;SDS011;4599;50.906;6.786;2022-08-21T08:25:00;6.03;;;2.27;;
9128;SDS011;4599;50.906;6.786;2022-08-21T08:29:01;6.83;;;2.33;;
9128;SDS011;4599;50.906;6.786;2022-08-21T08:33:03;7.50;;;2.23;;
9128;SDS011;4599;50.906;6.786;2022-08-21T08:37:05;8.07;;;2.27;;
9128;SDS011;4599;50.906;6.786;2022-08-21T08:41:10;6.13;;;2.20;;
9128;SDS011;4599;50.906;6.786;2022-08-21T08:45:15;4.67;;;1.97;;
9128;SDS011;4599;50.906;6.786;2022-08-21T08:49:19;6.00;;;2.10;;
9128;SDS011;4599;50.906;6.786;2022-08-21T08:53:25;7.13;;;2.20;;
9128;SDS011;4599;50.906;6.786;2022-08-21T08:57:33;8.93;;;2.00;;
9128;SDS011;4599;50.906;6.786;2022-08-21T09:01:36;6.87;;;2.10;;
9128;SDS011;4599;50.906;6.786;2022-08-21T09:05:40;8.27;;;2.50;;
9128;SDS011;4599;50.906;6.786;2022-08-21T09:09:49;8.43;;;2.33;;
9128;SDS011;4599;50.906;6.786;2022-08-21T09:14:05;8.97;;;2.23;;
9128;SDS011;4599;50.906;6.786;2022-08-21T09:18:19;7.80;;;2.03;;
9128;SDS011;4599;50.906;6.786;2022-08-21T09:22:31;6.13;;;2.47;;
9128;SDS011;4599;50.906;6.786;2022-08-21T09:26:44;13.40;;;2.13;;
9128;SDS011;4599;50.906;6.786;2022-08-21T09:30:52;4.90;;;1.60;;
9128;SDS011;4599;50.906;6.786;2022-08-21T09:34:56;5.87;;;1.93;;
9128;SDS011;4599;50.906;6.786;2022-08-21T09:39:00;5.30;;;1.80;;
9128;SDS011;4599;50.906;6.786;2022-08-21T09:43:02;7.60;;;2.07;;
9128;SDS011;4599;50.906;6.786;2022-08-21T09:47:10;6.10;;;2.23;;
9128;SDS011;4599;50.906;6.786;2022-08-21T09:51:13;6.60;;;2.40;;
9128;SDS011;4599;50.906;6.786;2022-08-21T09:55:19;5.50;;;2.47;;
9128;SDS011;4599;50.906;6.786;2022-08-21T09:59:25;5.87;;;1.93;;
9128;SDS011;4599;50.906;6.786;2022-08-21T10:08:39;8.07;;;2.20;;
9128;SDS011;4599;50.906;6.786;2022-08-21T10:12:43;5.70;;;2.37;;
9128;SDS011;4599;50.906;6.786;2022-08-21T10:16:53;4.10;;;1.93;;
9128;SDS011;4599;50.906;6.786;2022-08-21T10:21:02;6.37;;;1.97;;
9128;SDS011;4599;50.906;6.786;2022-08-21T10:25:16;8.60;;;2.30;;
9128;SDS011;4599;50.906;6.786;2022-08-21T10:29:23;4.57;;;1.80;;
9128;SDS011;4599;50.906;6.786;2022-08-21T10:33:37;5.18;;;2.15;;
9128;SDS011;4599;50.906;6.786;2022-08-21T10:37:54;6.93;;;2.13;;
9128;SDS011;4599;50.906;6.786;2022-08-21T10:42:38;5.22;;;1.90;;
9128;SDS011;4599;50.906;6.786;2022-08-21T10:46:52;5.10;;;1.92;;
9128;SDS011;4599;50.906;6.786;2022-08-21T10:50:59;6.22;;;2.00;;
9128;SDS011;4599;50.906;6.786;2022-08-21T10:55:08;3.90;;;1.90;;
9128;SDS011;4599;50.906;6.786;2022-08-21T10:59:23;5.47;;;2.05;;
9128;SDS011;4599;50.906;6.786;2022-08-21T11:03:32;6.38;;;1.90;;
9128;SDS011;4599;50.906;6.786;2022-08-21T11:07:39;6.05;;;2.10;;
9128;SDS011;4599;50.906;6.786;2022-08-21T11:11:50;5.38;;;1.92;;
9128;SDS011;4599;50.906;6.786;2022-08-21T11:16:16;6.00;;;1.90;;
9128;SDS011;4599;50.906;6.786;2022-08-21T11:20:26;5.50;;;1.80;;
9128;SDS011;4599;50.906;6.786;2022-08-21T11:24:35;5.53;;;2.08;;
9128;SDS011;4599;50.906;6.786;2022-08-21T11:28:44;4.72;;;2.00;;
9128;SDS011;4599;50.906;6.786;2022-08-21T11:32:57;4.38;;;1.83;;
9128;SDS011;4599;50.906;6.786;2022-08-21T11:37:11;6.53;;;1.90;;
9128;SDS011;4599;50.906;6.786;2022-08-21T11:41:22;4.50;;;1.70;;
9128;SDS011;4599;50.906;6.786;2022-08-21T11:45:30;5.32;;;2.10;;
9128;SDS011;4599;50.906;6.786;2022-08-21T11:49:44;7.25;;;2.28;;
9128;SDS011;4599;50.906;6.786;2022-08-21T11:53:56;6.00;;;1.90;;
9128;SDS011;4599;50.906;6.786;2022-08-21T11:58:09;6.60;;;2.17;;
9128;SDS011;4599;50.906;6.786;2022-08-21T12:02:18;5.65;;;2.15;;
9128;SDS011;4599;50.906;6.786;2022-08-21T12:06:29;4.55;;;2.00;;
9128;SDS011;4599;50.906;6.786;2022-08-21T12:10:33;5.07;;;1.95;;
9128;SDS011;4599;50.906;6.786;2022-08-21T12:14:38;4.97;;;2.15;;
9128;SDS011;4599;50.906;6.786;2022-08-21T12:18:42;4.25;;;2.08;;
9128;SDS011;4599;50.906;6.786;2022-08-21T12:22:49;5.28;;;1.95;;
9128;SDS011;4599;50.906;6.786;2022-08-21T12:26:55;5.60;;;2.17;;
9128;SDS011;4599;50.906;6.786;2022-08-21T12:30:58;4.93;;;2.10;;
9128;SDS011;4599;50.906;6.786;2022-08-21T12:35:02;3.45;;;1.80;;
9128;SDS011;4599;50.906;6.786;2022-08-21T12:39:26;7.85;;;2.30;;
9128;SDS011;4599;50.906;6.786;2022-08-21T12:43:33;4.50;;;2.08;;
9128;SDS011;4599;50.906;6.786;2022-08-21T12:47:43;3.88;;;1.83;;
9128;SDS011;4599;50.906;6.786;2022-08-21T12:51:50;4.72;;;2.10;;
9128;SDS011;4599;50.906;6.786;2022-08-21T12:56:00;4.88;;;1.73;;
9128;SDS011;4599;50.906;6.786;2022-08-21T13:00:04;4.90;;;2.17;;
9128;SDS011;4599;50.906;6.786;2022-08-21T13:04:10;8.43;;;2.15;;
9128;SDS011;4599;50.906;6.786;2022-08-21T13:08:13;5.78;;;1.90;;
9128;SDS011;4599;50.906;6.786;2022-08-21T13:12:17;4.60;;;1.90;;
9128;SDS011;4599;50.906;6.786;2022-08-21T13:16:22;4.55;;;2.10;;
9128;SDS011;4599;50.906;6.786;2022-08-21T13:20:28;7.40;;;2.22;;
9128;SDS011;4599;50.906;6.786;2022-08-21T13:24:32;4.95;;;2.20;;
9128;SDS011;4599;50.906;6.786;2022-08-21T13:28:45;5.75;;;2.20;;
9128;SDS011;4599;50.906;6.786;2022-08-21T13:32:48;5.05;;;2.00;;
9128;SDS011;4599;50.906;6.786;2022-08-21T13:36:54;5.05;;;2.10;;
9128;SDS011;4599;50.906;6.786;2022-08-21T13:41:03;4.90;;;2.15;;
9128;SDS011;4599;50.906;6.786;2022-08-21T13:45:15;6.60;;;2.10;;
9128;SDS011;4599;50.906;6.786;2022-08-21T13:49:26;4.05;;;1.90;;
9128;SDS011;4599;50.906;6.786;2022-08-21T13:53:33;4.80;;;2.08;;
9128;SDS011;4599;50.906;6.786;2022-08-21T13:57:36;4.47;;;1.73;;
9128;SDS011;4599;50.906;6.786;2022-08-21T14:01:48;6.30;;;1.63;;
9128;SDS011;4599;50.906;6.786;2022-08-21T14:05:52;4.47;;;1.92;;
9128;SDS011;4599;50.906;6.786;2022-08-21T14:09:54;4.15;;;2.08;;
9128;SDS011;4599;50.906;6.786;2022-08-21T14:13:56;5.43;;;1.75;;
9128;SDS011;4599;50.906;6.786;2022-08-21T14:18:13;4.43;;;1.83;;
9128;SDS011;4599;50.906;6.786;2022-08-21T14:22:27;2.70;;;1.65;;
9128;SDS011;4599;50.906;6.786;2022-08-21T14:26:31;3.50;;;1.75;;
9128;SDS011;4599;50.906;6.786;2022-08-21T14:30:36;4.47;;;1.63;;
9128;SDS011;4599;50.906;6.786;2022-08-21T14:34:42;3.45;;;1.45;;
9128;SDS011;4599;50.906;6.786;2022-08-21T14:38:43;5.57;;;1.60;;
9128;SDS011;4599;50.906;6.786;2022-08-21T14:42:46;3.28;;;1.70;;
9128;SDS011;4599;50.906;6.786;2022-08-21T14:46:48;5.93;;;1.60;;
9128;SDS011;4599;50.906;6.786;2022-08-21T14:50:58;5.05;;;1.50;;
9128;SDS011;4599;50.906;6.786;2022-08-21T14:55:01;6.07;;;2.17;;
9128;SDS011;4599;50.906;6.786;2022-08-21T14:59:03;10.20;;;1.80;;
9128;SDS011;4599;50.906;6.786;2022-08-21T15:03:07;2.30;;;1.45;;
9128;SDS011;4599;50.906;6.786;2022-08-21T15:07:10;5.10;;;2.53;;
9128;SDS011;4599;50.906;6.786;2022-08-21T15:11:12;7.60;;;2.90;;
9128;SDS011;4599;50.906;6.786;2022-08-21T15:15:40;7.63;;;1.70;;
9128;SDS011;4599;50.906;6.786;2022-08-21T15:19:43;2.70;;;1.40;;
9128;SDS011;4599;50.906;6.786;2022-08-21T15:23:46;3.22;;;1.40;;
9128;SDS011;4599;50.906;6.786;2022-08-21T15:27:48;2.72;;;1.60;;
9128;SDS011;4599;50.906;6.786;2022-08-21T15:31:50;3.15;;;1.60;;
9128;SDS011;4599;50.906;6.786;2022-08-21T15:35:53;7.23;;;1.70;;
9128;SDS011;4599;50.906;6.786;2022-08-21T15:39:56;4.15;;;1.50;;
9128;SDS011;4599;50.906;6.786;2022-08-21T15:43:58;3.10;;;1.43;;
9128;SDS011;4599;50.906;6.786;2022-08-21T15:48:00;2.53;;;1.40;;
9128;SDS011;4599;50.906;6.786;2022-08-21T15:52:02;2.90;;;1.33;;
9128;SDS011;4599;50.906;6.786;2022-08-21T15:56:06;1.97;;;1.27;;
9128;SDS011;4599;50.906;6.786;2022-08-21T16:00:14;2.30;;;1.40;;
9128;SDS011;4599;50.906;6.786;2022-08-21T16:04:21;2.30;;;1.30;;
9128;SDS011;4599;50.906;6.786;2022-08-21T16:08:26;1.55;;;1.35;;
9128;SDS011;4599;50.906;6.786;2022-08-21T16:12:30;4.13;;;1.30;;
9128;SDS011;4599;50.906;6.786;2022-08-21T16:16:33;3.60;;;1.40;;
9128;SDS011;4599;50.906;6.786;2022-08-21T16:20:36;3.80;;;1.30;;
9128;SDS011;4599;50.906;6.786;2022-08-21T16:24:37;5.10;;;1.53;;
9128;SDS011;4599;50.906;6.786;2022-08-21T16:28:42;3.27;;;1.70;;
9128;SDS011;4599;50.906;6.786;2022-08-21T16:32:47;2.83;;;1.40;;
9128;SDS011;4599;50.906;6.786;2022-08-21T16:36:49;3.13;;;1.50;;
9128;SDS011;4599;50.906;6.786;2022-08-21T16:40:50;5.03;;;1.60;;
9128;SDS011;4599;50.906;6.786;2022-08-21T16:44:54;2.23;;;1.33;;
9128;SDS011;4599;50.906;6.786;2022-08-21T16:48:55;2.07;;;1.40;;
9128;SDS011;4599;50.906;6.786;2022-08-21T16:52:57;2.37;;;1.40;;
9128;SDS011;4599;50.906;6.786;2022-08-21T16:56:59;2.93;;;1.60;;
9128;SDS011;4599;50.906;6.786;2022-08-21T17:01:04;3.87;;;1.30;;
9128;SDS011;4599;50.906;6.786;2022-08-21T17:05:08;3.63;;;1.50;;
9128;SDS011;4599;50.906;6.786;2022-08-21T17:09:14;4.07;;;1.60;;
9128;SDS011;4599;50.906;6.786;2022-08-21T17:13:17;3.80;;;1.60;;
9128;SDS011;4599;50.906;6.786;2022-08-21T17:17:20;4.57;;;1.53;;
9128;SDS011;4599;50.906;6.786;2022-08-21T17:21:21;3.73;;;1.43;;
9128;SDS011;4599;50.906;6.786;2022-08-21T17:25:23;5.20;;;1.60;;
9128;SDS011;4599;50.906;6.786;2022-08-21T17:29:26;3.63;;;1.60;;
9128;SDS011;4599;50.906;6.786;2022-08-21T17:33:35;3.47;;;1.50;;
9128;SDS011;4599;50.906;6.786;2022-08-21T17:37:39;3.87;;;1.70;;
9128;SDS011;4599;50.906;6.786;2022-08-21T17:41:41;6.80;;;1.50;;
9128;SDS011;4599;50.906;6.786;2022-08-21T17:45:43;4.60;;;1.53;;
9128;SDS011;4599;50.906;6.786;2022-08-21T17:49:47;4.63;;;1.70;;
9128;SDS011;4599;50.906;6.786;2022-08-21T17:53:49;3.97;;;1.60;;
9128;SDS011;4599;50.906;6.786;2022-08-21T17:57:50;4.33;;;1.60;;
9128;SDS011;4599;50.906;6.786;2022-08-21T18:01:52;6.57;;;1.63;;
9128;SDS011;4599;50.906;6.786;2022-08-21T18:05:56;1.93;;;1.50;;
9128;SDS011;4599;50.906;6.786;2022-08-21T18:09:58;4.73;;;1.80;;
9128;SDS011;4599;50.906;6.786;2022-08-21T18:14:01;3.60;;;1.53;;
9128;SDS011;4599;50.906;6.786;2022-08-21T18:18:08;4.93;;;1.80;;
9128;SDS011;4599;50.906;6.786;2022-08-21T18:22:11;2.50;;;1.53;;
9128;SDS011;4599;50.906;6.786;2022-08-21T18:26:13;3.17;;;1.53;;
9128;SDS011;4599;50.906;6.786;2022-08-21T18:30:17;3.77;;;1.40;;
9128;SDS011;4599;50.906;6.786;2022-08-21T18:34:22;5.80;;;1.70;;
9128;SDS011;4599;50.906;6.786;2022-08-21T18:38:27;5.00;;;1.90;;
9128;SDS011;4599;50.906;6.786;2022-08-21T18:42:29;5.53;;;1.50;;
9128;SDS011;4599;50.906;6.786;2022-08-21T18:46:37;3.77;;;1.47;;
9128;SDS011;4599;50.906;6.786;2022-08-21T18:50:40;6.33;;;1.77;;
9128;SDS011;4599;50.906;6.786;2022-08-21T18:54:45;3.87;;;1.43;;
9128;SDS011;4599;50.906;6.786;2022-08-21T18:58:51;3.50;;;1.60;;
9128;SDS011;4599;50.906;6.786;2022-08-21T19:02:53;4.57;;;1.30;;
9128;SDS011;4599;50.906;6.786;2022-08-21T19:06:55;3.30;;;1.60;;
9128;SDS011;4599;50.906;6.786;2022-08-21T19:10:58;3.07;;;1.40;;
9128;SDS011;4599;50.906;6.786;2022-08-21T19:15:00;5.13;;;1.63;;
9128;SDS011;4599;50.906;6.786;2022-08-21T19:19:03;4.60;;;1.60;;
9128;SDS011;4599;50.906;6.786;2022-08-21T19:23:05;4.43;;;1.60;;
9128;SDS011;4599;50.906;6.786;2022-08-21T19:27:09;4.17;;;1.40;;
9128;SDS011;4599;50.906;6.786;2022-08-21T19:31:12;3.93;;;1.70;;
9128;SDS011;4599;50.906;6.786;2022-08-21T19:35:16;5.40;;;1.60;;
9128;SDS011;4599;50.906;6.786;2022-08-21T19:39:18;7.77;;;1.50;;
9128;SDS011;4599;50.906;6.786;2022-08-21T19:43:21;4.57;;;1.60;;
9128;SDS011;4599;50.906;6.786;2022-08-21T19:47:25;4.60;;;1.40;;
9128;SDS011;4599;50.906;6.786;2022-08-21T19:51:29;4.27;;;1.77;;
9128;SDS011;4599;50.906;6.786;2022-08-21T19:55:31;6.90;;;1.70;;
9128;SDS011;4599;50.906;6.786;2022-08-21T19:59:35;3.67;;;1.40;;
9128;SDS011;4599;50.906;6.786;2022-08-21T20:03:39;3.70;;;1.50;;
9128;SDS011;4599;50.906;6.786;2022-08-21T20:07:43;5.00;;;1.67;;
9128;SDS011;4599;50.906;6.786;2022-08-21T20:11:47;6.77;;;1.70;;
9128;SDS011;4599;50.906;6.786;2022-08-21T20:15:52;4.20;;;1.50;;
9128;SDS011;4599;50.906;6.786;2022-08-21T20:19:54;3.80;;;1.70;;
9128;SDS011;4599;50.906;6.786;2022-08-21T20:23:56;8.70;;;1.93;;
9128;SDS011;4599;50.906;6.786;2022-08-21T20:27:57;6.70;;;1.60;;
9128;SDS011;4599;50.906;6.786;2022-08-21T20:32:02;5.13;;;1.90;;
9128;SDS011;4599;50.906;6.786;2022-08-21T20:36:05;5.10;;;1.70;;
9128;SDS011;4599;50.906;6.786;2022-08-21T20:40:08;5.53;;;2.00;;
9128;SDS011;4599;50.906;6.786;2022-08-21T20:44:12;3.70;;;1.40;;
9128;SDS011;4599;50.906;6.786;2022-08-21T20:48:16;4.37;;;1.80;;
9128;SDS011;4599;50.906;6.786;2022-08-21T20:52:23;4.27;;;1.70;;
9128;SDS011;4599;50.906;6.786;2022-08-21T20:56:29;4.00;;;1.60;;
9128;SDS011;4599;50.906;6.786;2022-08-21T21:00:38;9.43;;;1.70;;
9128;SDS011;4599;50.906;6.786;2022-08-21T21:04:44;8.00;;;2.00;;
9128;SDS011;4599;50.906;6.786;2022-08-21T21:08:52;4.93;;;1.90;;
9128;SDS011;4599;50.906;6.786;2022-08-21T21:12:59;4.33;;;1.93;;
9128;SDS011;4599;50.906;6.786;2022-08-21T21:17:04;6.57;;;2.10;;
9128;SDS011;4599;50.906;6.786;2022-08-21T21:21:12;7.17;;;2.17;;
9128;SDS011;4599;50.906;6.786;2022-08-21T21:25:20;5.47;;;2.10;;
9128;SDS011;4599;50.906;6.786;2022-08-21T21:29:41;5.77;;;2.10;;
9128;SDS011;4599;50.906;6.786;2022-08-21T21:33:48;4.40;;;1.70;;
9128;SDS011;4599;50.906;6.786;2022-08-21T21:37:51;5.83;;;2.10;;
9128;SDS011;4599;50.906;6.786;2022-08-21T21:42:02;7.03;;;1.90;;
9128;SDS011;4599;50.906;6.786;2022-08-21T21:46:18;5.93;;;2.00;;
9128;SDS011;4599;50.906;6.786;2022-08-21T21:50:41;6.93;;;2.20;;
9128;SDS011;4599;50.906;6.786;2022-08-21T21:55:02;7.37;;;2.20;;
9128;SDS011;4599;50.906;6.786;2022-08-21T21:59:21;4.60;;;1.90;;
9128;SDS011;4599;50.906;6.786;2022-08-21T22:03:35;6.07;;;2.10;;
9128;SDS011;4599;50.906;6.786;2022-08-21T22:07:50;5.47;;;2.00;;
9128;SDS011;4599;50.906;6.786;2022-08-21T22:12:27;8.93;;;2.20;;
9128;SDS011;4599;50.906;6.786;2022-08-21T22:16:51;6.33;;;2.33;;
9128;SDS011;4599;50.906;6.786;2022-08-21T22:20:53;6.47;;;2.10;;
9128;SDS011;4599;50.906;6.786;2022-08-21T22:25:03;6.10;;;2.30;;
9128;SDS011;4599;50.906;6.786;2022-08-21T22:29:10;6.63;;;2.00;;
9128;SDS011;4599;50.906;6.786;2022-08-21T22:33:15;7.13;;;2.50;;
9128;SDS011;4599;50.906;6.786;2022-08-21T22:37:20;7.67;;;2.20;;
9128;SDS011;4599;50.906;6.786;2022-08-21T22:41:37;5.87;;;2.10;;
9128;SDS011;4599;50.906;6.786;2022-08-21T22:45:49;3.63;;;2.00;;
9128;SDS011;4599;50.906;6.786;2022-08-21T22:49:56;4.67;;;2.20;;
9128;SDS011;4599;50.906;6.786;2022-08-21T22:54:04;7.70;;;2.37;;
9128;SDS011;4599;50.906;6.786;2022-08-21T22:58:22;7.43;;;2.23;;
9128;SDS011;4599;50.906;6.786;2022-08-21T23:02:31;6.07;;;2.17;;
9128;SDS011;4599;50.906;6.786;2022-08-21T23:06:39;6.97;;;2.30;;
9128;SDS011;4599;50.906;6.786;2022-08-21T23:10:43;8.33;;;2.47;;
9128;SDS011;4599;50.906;6.786;2022-08-21T23:14:45;7.90;;;2.37;;
9128;SDS011;4599;50.906;6.786;2022-08-21T23:18:58;5.67;;;2.37;;
9128;SDS011;4599;50.906;6.786;2022-08-21T23:23:09;12.33;;;2.53;;
9128;SDS011;4599;50.906;6.786;2022-08-21T23:27:23;7.00;;;2.50;;
9128;SDS011;4599;50.906;6.786;2022-08-21T23:31:38;6.33;;;2.37;;
9128;SDS011;4599;50.906;6.786;2022-08-21T23:35:49;5.70;;;2.20;;
9128;SDS011;4599;50.906;6.786;2022-08-21T23:40:01;8.17;;;2.30;;
9128;SDS011;4599;50.906;6.786;2022-08-21T23:44:14;11.57;;;2.80;;
9128;SDS011;4599;50.906;6.786;2022-08-21T23:48:28;7.83;;;2.63;;
9128;SDS011;4599;50.906;6.786;2022-08-21T23:52:48;5.03;;;2.13;;
9128;SDS011;4599;50.906;6.786;2022-08-21T23:57:12;8.33;;;2.60;;
